Del Bonita, Montana
Current Conditions -  °F | °C
As of 7:56 PM on Wednesday 22 Oct 2014 (Local Time) from KCTB Reporting Station
Clear Clear  
Wind Chill: 53°   Ceiling: Unl
Heat Index: 53°   Visibility: 10mi
Dew Point: 34°   Wind: 9mph
Humidity: 48%   Direction: 230°SW
Pressure: 29.83"   Gusts: NA
Location:  48.808°N, 112.487°W
Report Text: KCTB 230156Z AUTO 23008KT 10SM CLR 12/01 A2983 RMK AO2 SLP101 T01170011
Loading
Personal Weather Stations






























Interactive Weather Map
Tropical Storm Tracking
New forecast layout! Learn more

10-Day Weather Forecast

Advertisements
Track Severe Weather on mobile